Arctic Village, AK (99722)

3:14 AM AKST on December 04, 2016 (GMT -0900)
Arctic Village | | Change Station

Elev 2090 ft 68.11 °N, 145.58 °W | Updated 1 hour ago

Clear
Clear
-23 °F
Feels Like -23 °F
N
0
Wind Variable Wind from North

Today
High -- | Low -- °F
--% Chance of Precip.
Yesterday
High -- | Low -- °F
Precip. -- in
Pressure 30.77 in
Visibility 10.0 miles
Clouds Clear
Dew Point -28 °F
Humidity 78%
Rainfall 0.00 in
Snow Depth Not available.
11:50 AM 1:14 PM
Waxing Crescent, 22% visible
METAR PARC 041056Z AUTO 00000KT 10SM CLR M31/M33 A3045 RMK AO2 SLP418 T13061333 FZRANO
Pressure 30.77 in
Visibility 10.0 miles
Clouds Clear
Dew Point -28 °F
Humidity 78%
Rainfall 0.00 in
Snow Depth Not available.
11:50 AM 1:14 PM
Waxing Crescent, 22% visible
METAR PARC 041056Z AUTO 00000KT 10SM CLR M31/M33 A3045 RMK AO2 SLP418 T13061333 FZRANO

10-Day Weather Forecast

Almanac

Astronomy

Dec. 04, 2016 Rise Set
Actual Time
Civil Twilight
Nautical Twilight
Astronomical Twilight
Moon
Length of Visible Light
Length of Day
Tomorrow will be .
, % of the Moon is Illuminated

Today's Extremes

State Highs State Lows

Community

WunderPhotos

Upload Photos

1,955,591 photos uploaded!

WunderBlog® & News

Nearby

Air Quality

  Air Quality AQ Index Pollutant
Not available.

Snow Depth

Station Depth Elevation

Earthquake Activity

City Distance Mag. Time & Date
Minimum magnitude displayed is 2.5.

Coastal Water Temperatures

Place Temperature

Stations

Nearby Weather Stations

Station Location Temp. Windchill Dew Point Humidity Wind Precip. Elev Updated Type
                   

Watches & Warnings

There are currently no watches in effect.